• Join FlightAware (Why Join?)
  • Login
  • US Flag 
12:01PM EST


 

Airport Tracker/Info


-or-


 

Live Flight TrackerFlight Track Log ✈ ASQ5996 ✈ 17-Apr-2014 ✈ KBNA - KORD

Flight Track Log - Related Links

Times and Time Zones

All times are in EDT time to prevent confusion due to time zone crossing. See the ASQ5996 flight status page for this flight to view local times or setup timezone preferences in your user account.

Time Position Orientation Groundspeed Altitude Reporting Facility
EDT Latitude Longitude Course Direction KTS MPH feet Rate Location/Type
10:47AM 36.1167 -86.6833 90° East 147 169 1,500  Level Nashville TRACON
10:48AM 36.1000 -86.7333 248° West 183 211 2,900 2,353 Climbing Nashville TRACON
10:48AM 36.0833 -86.7833 248° West 218 251 5,500 2,474 Climbing Nashville TRACON
10:49AM 36.1500 -86.8167 338° Northwest 279 321 7,600 2,350 Climbing Nashville TRACON
10:50AM 36.2167 -86.7667 31° Northeast 296 341 10,200 2,391 Climbing Nashville TRACON
10:51AM 36.5665 -86.4667 22° Northeast  Level FlightAware Approximate
10:52AM 36.6500 -86.4235 90° East  Level FlightAware Approximate
10:52AM 36.2925 -86.7028 34° Northeast 300 345 13,100  Level Memphis Center
10:53AM 36.3672 -86.6436 33° Northeast 314 361 14,900 2,032 Climbing Memphis Center
10:54AM 36.4589 -86.5706 33° Northeast 329 379 17,300 2,032 Climbing Memphis Center
10:55AM 36.5386 -86.5078 32° Northeast 332 382 19,100 1,839 Climbing Memphis Center
10:56AM 36.6231 -86.4506 29° Northeast 339 390 21,100 1,839 Climbing Memphis Center
10:57AM 36.7158 -86.4044 22° Northeast 352 405 22,900 1,742 Climbing Memphis Center
10:58AM 36.8094 -86.3569 22° Northeast 355 409 24,700 1,603 Climbing Memphis Center
10:59AM 36.9231 -86.3017 21° North 369 425 26,400 1,548 Climbing Indianapolis Center
11:00AM 37.0231 -86.2511 22° Northeast 377 434 27,900 1,538 Climbing Memphis Center
11:01AM 37.1253 -86.2008 21° North 385 443 29,400 1,355 Climbing Memphis Center
11:02AM 37.2269 -86.1497 22° Northeast 385 443 30,700 774 Climbing Memphis Center
11:03AM 37.3278 -86.0869 26° Northeast 395 455 31,000 144 Climbing Memphis Center
11:04AM 37.4350 -86.0419 18° North 403 464 31,000  Level Memphis Center
11:05AM 37.5458 -86.0306 North 397 457 31,000  Level Memphis Center
11:06AM 37.6564 -86.0181 North 396 456 31,000  Level Memphis Center
11:07AM 37.7808 -86.0058 North 397 457 31,000  Level Indianapolis Center
11:08AM 37.8911 -85.9925 North 397 457 31,000  Level Indianapolis Center
11:09AM 38.0219 -85.9772 North 397 457 31,000  Level Indianapolis Center
11:10AM 38.1306 -85.9644 North 396 456 31,000  Level Indianapolis Center
11:11AM 38.2400 -85.9511 North 395 455 31,000  Level Indianapolis Center
11:13AM 38.3481 -85.9389 North 394 453 31,000  Level Indianapolis Center
11:14AM 38.4550 -85.9256 North 390 449 31,000  Level Indianapolis Center
11:15AM 38.5628 -85.9131 North 389 448 31,000  Level Indianapolis Center
11:16AM 38.6706 -85.9006 North 389 448 31,000 -774 Level Indianapolis Center
11:17AM 38.7931 -85.8861 North 396 456 29,400 -1,403 Descending Indianapolis Center
11:18AM 38.8908 -85.8292 24° Northeast 399 459 28,100 -683 Descending Indianapolis Center
11:19AM 38.9719 -85.7303 43° Northeast 400 460 28,000 -47 Descending Indianapolis Center
11:20AM 39.0700 -85.6106 43° Northeast 405 466 28,000  Level Indianapolis Center
11:21AM 39.1697 -85.4894 43° Northeast 409 471 28,000  Level Indianapolis Center
11:22AM 39.2544 -85.3889 43° Northeast 411 473 28,000  Level Indianapolis Center
11:23AM 39.3378 -85.2881 43° Northeast 412 474 28,000  Level Indianapolis Center
11:24AM 39.4261 -85.1964 39° Northeast 413 475 28,000  Level Indianapolis Center
11:25AM 39.5342 -85.1969 360° North 400 460 28,000  Level Indianapolis Center
11:26AM 39.6514 -85.2531 340° North 381 438 28,000  Level Indianapolis Center
11:27AM 39.7481 -85.3017 339° North 377 434 28,000  Level Indianapolis Center
11:28AM 39.8433 -85.3503 339° North 374 430 28,000 -387 Level Indianapolis Center
11:29AM 39.9381 -85.3978 339° North 373 429 27,200 -871 Descending Indianapolis Center
11:30AM 40.0278 -85.4436 339° North 359 413 26,200 -581 Descending Indianapolis Center
11:31AM 40.1183 -85.5372 322° Northwest 355 409 26,000 -484 Descending Indianapolis Center
11:32AM 40.1842 -85.6206 316° Northwest 339 390 25,200 -462 Descending Indianapolis Center
11:33AM 40.2469 -85.7017 315° West 327 376 25,000 -339 Descending Chicago Center
11:34AM 40.3142 -85.7906 315° West 334 384 24,500 -763 Descending Indianapolis Center
11:35AM 40.3794 -85.8761 315° West 336 387 23,500 -726 Descending Indianapolis Center
11:36AM 40.4442 -85.9611 315° West 335 386 23,000 -242 Descending Indianapolis Center
11:37AM 40.5228 -86.0631 315° West 335 386 23,000 -97 Level Indianapolis Center
11:39AM 40.5869 -86.1478 315° West 332 382 22,800 -581 Descending Indianapolis Center
11:40AM 40.6483 -86.2294 315° West 322 371 21,800 -1,016 Descending Indianapolis Center
11:41AM 40.7103 -86.3117 315° West 320 368 20,700 -1,016 Descending Indianapolis Center
11:42AM 40.7725 -86.3947 315° West 320 368 19,700 -1,016 Descending Indianapolis Center
11:43AM 40.8308 -86.4742 314° West 309 356 18,600 -968 Descending Indianapolis Center
11:44AM 40.8983 -86.5631 315° West 292 336 17,700 -919 Descending Indianapolis Center
11:45AM 40.9511 -86.6342 315° West 283 326 16,700 -1,016 Descending Indianapolis Center
11:46AM 41.0042 -86.7047 315° West 277 319 15,600 -1,039 Descending Indianapolis Center
11:47AM 41.0689 -86.7922 314° West 290 334 14,500 -1,048 Descending Chicago Center
11:48AM 41.1297 -86.8728 315° West 284 327 13,400 -1,073 Descending Chicago Center
11:49AM 41.1811 -86.9422 315° West 266 306 12,300 -1,065 Descending Chicago Center
11:50AM 41.2342 -87.0158 314° West 259 298 11,200 -629 Descending Chicago Center
11:51AM 41.2847 -87.0842 315° West 259 298 11,000 -98 Descending Chicago Center
11:52AM 41.3350 -87.1522 315° West 259 298 11,000  Level Chicago Center
11:53AM 41.3925 -87.2258 316° Northwest 263 303 11,000  Level Chicago Center
11:54AM 41.4461 -87.2900 318° Northwest 261 300 11,000  Level Chicago Center
11:55AM 41.5014 -87.3558 318° Northwest 263 303 11,000  Level Chicago Center
11:56AM 41.5692 -87.4175 326° Northwest 271 312 11,000 -242 Level Chicago Center
11:57AM 41.6308 -87.4742 326° Northwest 272 313 10,500 -823 Descending Chicago Center
11:58AM 41.7022 -87.5208 334° Northwest 267 307 9,300 -1,073 Descending Chicago Center
11:59AM 41.7711 -87.5589 338° Northwest 268 308 8,300 -976 Descending Chicago Center
12:00PM 41.8381 -87.5956 338° Northwest 265 305 7,300 -1,113 Descending Chicago Center
12:01PM 41.9042 -87.6281 340° North 238 274 6,000 -1,306 Descending Chicago Center
12:02PM 41.9422 -87.6847 312° West 207 238 4,600 -1,065 Descending Chicago Center
12:03PM 41.9658 -87.7444 298° West 169 194 3,800 -829 Descending Chicago Center
12:04PM 41.9653 -87.8022 269° West 157 181 2,900 -1,171 Descending Chicago Center
12:05PM 41.9650 -87.8497 270° West 131 151 1,400 -1,016 Descending Chicago Center
12:06PM 41.9650 -87.8994 270° West 125 144 800 -581 Descending Chicago Center